Time;durP1;ratioP1;P1;durP2;ratioP2;P2;SDS_P1;SDS_P2;PMS_P1;PMS_P2;Temp;Humidity;BMP_temperature;BMP_pressure;BME280_temperature;BME280_humidity;BME280_pressure;Samples;Min_cycle;Max_cycle;Signal;HPM_P1;HPM_P2
2022/10/17 00:00:38;;;;;;;6.63;4.43;;;;;;;5.89;63.35;100216.44;5092484;28;20493;-61
2022/10/17 00:03:03;;;;;;;8.57;5.10;;;;;;;5.89;63.07;100205.09;5093974;28;20047;-61
2022/10/17 00:05:29;;;;;;;9.40;4.93;;;;;;;5.90;62.64;100204.88;5094053;28;20147;-61
2022/10/17 00:07:55;;;;;;;6.50;4.13;;;;;;;5.91;62.99;100203.91;5093473;28;20039;-60
2022/10/17 00:10:21;;;;;;;9.93;4.70;;;;;;;5.93;63.29;100203.72;5092406;28;20559;-60
2022/10/17 00:12:46;;;;;;;15.15;5.57;;;;;;;5.96;62.85;100205.19;5093517;28;20417;-61
2022/10/17 00:15:17;;;;;;;8.90;4.80;;;;;;;5.96;63.07;100189.38;5093380;28;20055;-60
2022/10/17 00:17:42;;;;;;;7.28;4.60;;;;;;;5.96;63.11;100194.66;5075395;28;20104;-61
2022/10/17 00:20:08;;;;;;;8.15;4.50;;;;;;;5.97;62.29;100180.47;5075348;28;20513;-61
2022/10/17 00:22:34;;;;;;;8.85;4.43;;;;;;;5.98;62.58;100182.13;5093199;28;20042;-62
2022/10/17 00:25:00;;;;;;;7.18;4.72;;;;;;;5.98;62.44;100182.94;5093470;28;20085;-61
2022/10/17 00:27:25;;;;;;;8.10;5.20;;;;;;;6.00;62.46;100177.47;5083115;28;20036;-61
2022/10/17 00:29:51;;;;;;;7.20;4.55;;;;;;;6.00;62.95;100175.69;5076601;28;20421;-62
2022/10/17 00:32:18;;;;;;;6.32;4.32;;;;;;;6.05;62.72;100172.47;5071889;28;20128;-62
2022/10/17 00:34:44;;;;;;;11.15;4.50;;;;;;;6.04;62.56;100157.69;5071083;28;20052;-61
2022/10/17 00:37:10;;;;;;;7.20;4.00;;;;;;;6.08;62.21;100162.38;5072890;28;20150;-61
2022/10/17 00:39:35;;;;;;;6.65;4.32;;;;;;;6.08;62.49;100157.09;5091674;28;20118;-62
2022/10/17 00:42:03;;;;;;;8.10;4.60;;;;;;;6.12;62.25;100161.00;5074876;28;20134;-61
2022/10/17 00:44:33;;;;;;;7.78;4.60;;;;;;;6.12;61.93;100158.38;5086127;28;20056;-62
2022/10/17 00:47:03;;;;;;;7.95;4.68;;;;;;;6.11;62.15;100140.94;5054686;28;20094;-61
2022/10/17 00:49:31;;;;;;;5.40;4.03;;;;;;;6.12;62.30;100139.16;5069018;28;20083;-61
2022/10/17 00:52:27;;;;;;;5.35;4.30;;;;;;;6.17;61.75;100135.91;5071124;28;20047;-61
2022/10/17 00:54:57;;;;;;;7.22;4.43;;;;;;;6.21;62.33;100134.56;5066974;28;20048;-61
2022/10/17 00:57:23;;;;;;;8.82;4.47;;;;;;;6.15;62.32;100133.50;5072822;28;20094;-61
2022/10/17 00:59:52;;;;;;;8.30;4.50;;;;;;;6.14;62.20;100126.59;5057922;28;20036;-61
2022/10/17 01:02:19;;;;;;;8.15;4.50;;;;;;;6.20;62.32;100127.66;5092653;28;20051;-61
2022/10/17 01:04:48;;;;;;;6.72;4.28;;;;;;;6.21;62.07;100127.47;5092657;28;20416;-61
2022/10/17 01:07:13;;;;;;;7.10;4.70;;;;;;;6.16;62.05;100119.31;5058016;28;20035;-61
2022/10/17 01:09:40;;;;;;;6.30;4.45;;;;;;;6.19;61.90;100120.75;5092677;28;20043;-61
2022/10/17 01:12:27;;;;;;;5.85;4.32;;;;;;;6.17;62.11;100123.56;5074532;28;20457;-60
2022/10/17 01:15:05;;;;;;;8.55;4.53;;;;;;;6.15;62.31;100109.81;5074062;28;20060;-62
2022/10/17 01:18:00;;;;;;;7.15;4.03;;;;;;;6.15;61.70;100099.28;5091025;28;20040;-60
2022/10/17 01:21:14;;;;;;;7.68;4.75;;;;;;;6.12;61.81;100099.66;5066421;28;20420;-62
2022/10/17 01:24:03;;;;;;;6.57;4.45;;;;;;;6.12;62.44;100097.84;5092384;28;20082;-62
2022/10/17 01:26:46;;;;;;;6.20;4.50;;;;;;;6.13;62.43;100093.38;5091074;28;20044;-61
2022/10/17 01:29:15;;;;;;;10.43;4.68;;;;;;;6.13;62.39;100096.81;5091075;28;20129;-61
2022/10/17 01:32:08;;;;;;;7.50;4.25;;;;;;;6.17;62.38;100093.81;5073898;28;20039;-61
2022/10/17 01:34:43;;;;;;;11.43;4.50;;;;;;;6.16;61.93;100089.56;5069930;28;20060;-60
2022/10/17 01:37:33;;;;;;;6.53;4.18;;;;;;;6.11;62.19;100075.13;5053900;28;20092;-61
2022/10/17 01:40:11;;;;;;;7.25;4.78;;;;;;;6.13;61.70;100067.88;5070773;28;20056;-60
2022/10/17 01:42:38;;;;;;;5.55;4.40;;;;;;;6.13;62.12;100057.34;5056174;28;20047;-61
2022/10/17 01:45:11;;;;;;;7.88;4.55;;;;;;;6.12;62.44;100058.34;5090611;28;20036;-59
2022/10/17 01:47:37;;;;;;;9.38;4.40;;;;;;;6.12;62.63;100054.91;5091730;28;20044;-62
2022/10/17 01:50:33;;;;;;;8.38;4.65;;;;;;;6.12;61.93;100047.81;5073662;28;20063;-61
2022/10/17 01:53:04;;;;;;;6.93;4.70;;;;;;;6.13;62.37;100052.06;5090343;28;20054;-59
2022/10/17 01:55:41;;;;;;;6.70;4.55;;;;;;;6.16;62.71;100052.69;5073658;28;20501;-60
2022/10/17 01:58:24;;;;;;;9.38;4.85;;;;;;;6.12;62.35;100058.34;5053371;28;20110;-60
2022/10/17 02:00:51;;;;;;;11.77;4.90;;;;;;;6.10;62.11;100055.09;5070072;28;20032;-61
2022/10/17 02:03:18;;;;;;;6.28;4.60;;;;;;;6.06;62.45;100055.66;5077795;28;20402;-62
2022/10/17 02:05:44;;;;;;;7.57;4.55;;;;;;;6.04;62.51;100063.75;5090562;28;20046;-61
2022/10/17 02:08:10;;;;;;;10.10;5.00;;;;;;;6.07;62.85;100059.94;5090253;28;20043;-61
2022/10/17 02:10:53;;;;;;;8.35;4.70;;;;;;;6.06;63.01;100050.38;5090236;28;20413;-60
2022/10/17 02:13:38;;;;;;;10.23;4.80;;;;;;;6.00;62.85;100054.63;5091292;28;20056;-61
2022/10/17 02:16:03;;;;;;;9.38;5.03;;;;;;;6.00;63.07;100052.00;5073411;28;20421;-60
2022/10/17 02:18:39;;;;;;;6.25;4.35;;;;;;;6.02;63.00;100057.03;5090088;28;20040;-61
2022/10/17 02:21:56;;;;;;;7.70;5.10;;;;;;;5.97;62.64;100055.00;5076813;28;20036;-60
2022/10/17 02:24:32;;;;;;;9.27;4.43;;;;;;;5.90;63.11;100051.47;5069846;28;20045;-61
2022/10/17 02:27:07;;;;;;;8.18;4.93;;;;;;;5.85;63.52;100046.78;5070005;28;20136;-59
2022/10/17 02:29:39;;;;;;;9.57;4.95;;;;;;;5.83;63.10;100042.72;5090152;28;20051;-61
2022/10/17 02:32:08;;;;;;;8.40;5.20;;;;;;;5.76;63.64;100042.63;5073081;28;20416;-60
2022/10/17 02:34:41;;;;;;;5.75;4.03;;;;;;;5.70;63.68;100041.56;5069658;28;20040;-62
2022/10/17 02:37:07;;;;;;;7.25;4.65;;;;;;;5.62;64.69;100036.47;5071041;28;20080;-61
2022/10/17 02:39:33;;;;;;;9.23;4.65;;;;;;;5.65;64.50;100035.28;5052872;28;20519;-60
2022/10/17 02:42:02;;;;;;;5.55;4.40;;;;;;;5.60;64.19;100025.31;5052970;28;20105;-60
2022/10/17 02:44:30;;;;;;;7.97;5.00;;;;;;;5.62;64.51;100012.81;5066535;28;20036;-61
2022/10/17 02:47:08;;;;;;;5.55;4.60;;;;;;;5.60;63.98;100014.78;5092711;28;20047;-62
2022/10/17 02:49:38;;;;;;;6.60;4.68;;;;;;;5.56;64.72;100013.56;5073628;28;20044;-60
2022/10/17 02:52:11;;;;;;;8.75;4.60;;;;;;;5.54;64.16;100012.94;5073603;28;20044;-61
2022/10/17 02:55:02;;;;;;;8.23;4.65;;;;;;;5.47;65.45;100015.50;5065341;28;20072;-60
2022/10/17 02:57:30;;;;;;;10.38;5.00;;;;;;;5.50;65.16;100003.78;5075000;28;20040;-61
2022/10/17 02:59:57;;;;;;;7.43;4.97;;;;;;;5.54;64.50;100014.75;5066163;28;20055;-60
2022/10/17 03:02:23;;;;;;;5.70;4.38;;;;;;;5.55;64.28;100009.28;5073739;28;20060;-60
2022/10/17 03:04:49;;;;;;;6.47;4.57;;;;;;;5.54;64.39;100002.41;5085449;28;20131;-61
2022/10/17 03:07:15;;;;;;;9.38;4.47;;;;;;;5.56;64.28;99994.31;5095181;28;20131;-62
2022/10/17 03:09:40;;;;;;;8.30;4.78;;;;;;;5.54;64.46;99998.97;5093653;28;20044;-60
2022/10/17 03:12:06;;;;;;;9.25;4.20;;;;;;;5.52;65.38;99991.25;5093568;28;20394;-61
2022/10/17 03:14:33;;;;;;;9.23;4.93;;;;;;;5.57;64.46;99982.81;5093336;28;20540;-60
2022/10/17 03:16:58;;;;;;;12.63;5.05;;;;;;;5.56;64.72;99984.63;5093541;28;20043;-61
2022/10/17 03:19:25;;;;;;;8.48;4.50;;;;;;;5.57;65.08;99977.53;5093315;28;20501;-61
2022/10/17 03:21:53;;;;;;;10.50;4.90;;;;;;;5.53;65.35;99974.50;5094710;28;20430;-61
2022/10/17 03:24:18;;;;;;;6.50;4.88;;;;;;;5.51;65.19;99973.84;5093521;28;20044;-60
2022/10/17 03:26:44;;;;;;;8.20;4.72;;;;;;;5.50;65.32;99977.50;5093353;28;20040;-61
2022/10/17 03:29:10;;;;;;;10.35;4.82;;;;;;;5.55;64.84;99982.19;5093474;28;20047;-62
2022/10/17 03:31:37;;;;;;;8.85;5.10;;;;;;;5.51;65.43;99973.06;5076317;28;20046;-61
2022/10/17 03:34:05;;;;;;;7.13;4.80;;;;;;;5.51;65.01;99965.97;5093314;28;20090;-61
2022/10/17 03:36:31;;;;;;;5.30;4.40;;;;;;;5.55;65.07;99961.13;5094743;28;20040;-61
2022/10/17 03:38:57;;;;;;;12.85;4.68;;;;;;;5.58;64.48;99951.03;5093409;28;20040;-61
2022/10/17 03:41:22;;;;;;;8.30;5.00;;;;;;;5.64;64.78;99954.72;5093142;28;20040;-61
2022/10/17 03:43:48;;;;;;;9.50;5.25;;;;;;;5.68;64.70;99958.63;5092899;28;20050;-61
2022/10/17 03:46:14;;;;;;;8.63;4.85;;;;;;;5.72;64.51;99954.59;5092881;28;20067;-61
2022/10/17 03:48:40;;;;;;;6.00;4.30;;;;;;;5.71;64.14;99952.97;5093079;28;20083;-62
2022/10/17 03:51:08;;;;;;;8.27;4.78;;;;;;;5.75;63.88;99938.44;5093913;28;20477;-61
2022/10/17 03:53:39;;;;;;;6.85;4.70;;;;;;;5.77;64.38;99933.00;5092982;28;20055;-61
2022/10/17 03:56:14;;;;;;;9.38;5.25;;;;;;;5.81;63.67;99936.84;5092578;28;20100;-60
2022/10/17 03:58:41;;;;;;;8.40;5.05;;;;;;;5.75;64.39;99920.00;5092180;28;20052;-61
2022/10/17 04:01:08;;;;;;;9.00;4.88;;;;;;;5.83;63.98;99924.31;5092754;28;20052;-61
2022/10/17 04:03:34;;;;;;;9.85;5.10;;;;;;;5.82;64.04;99927.94;5092973;28;20052;-61
2022/10/17 04:06:00;;;;;;;12.07;4.97;;;;;;;5.83;64.15;99924.31;5092738;28;20386;-60
2022/10/17 04:08:26;;;;;;;11.95;5.68;;;;;;;5.83;64.31;99917.22;5071039;28;20040;-62
2022/10/17 04:11:06;;;;;;;9.50;5.10;;;;;;;5.87;64.30;99918.47;5078054;28;20131;-62
2022/10/17 04:13:32;;;;;;;9.75;5.28;;;;;;;5.92;63.74;99918.69;5055462;28;20529;-61
2022/10/17 04:16:05;;;;;;;7.28;4.65;;;;;;;5.99;63.71;99915.31;5086511;28;20058;-61
2022/10/17 04:18:32;;;;;;;12.27;4.78;;;;;;;5.99;63.90;99916.13;5092350;28;20052;-61
2022/10/17 04:21:01;;;;;;;9.05;5.07;;;;;;;6.06;63.08;99903.84;5091998;28;20036;-62
2022/10/17 04:23:27;;;;;;;6.82;5.03;;;;;;;6.11;63.02;99896.16;5092489;28;20062;-61
2022/10/17 04:25:59;;;;;;;;;;;;;;;6.20;62.81;99898.63;5072175;28;20102;-61
2022/10/17 04:28:25;;;;;;;9.45;5.20;;;;;;;6.18;63.00;99884.81;5072130;28;19924;-62
2022/10/17 04:31:11;;;;;;;9.35;5.13;;;;;;;6.25;63.10;99890.94;5084023;28;20050;-62
2022/10/17 04:33:56;;;;;;;8.70;5.45;;;;;;;6.31;62.81;99885.69;5093151;28;20051;-62
2022/10/17 04:36:22;;;;;;;8.52;4.93;;;;;;;6.33;62.35;99888.97;5091876;28;20051;-61
2022/10/17 04:38:48;;;;;;;8.80;5.13;;;;;;;6.35;62.49;99901.91;5093697;28;20074;-61
2022/10/17 04:41:16;;;;;;;8.88;4.93;;;;;;;6.35;62.65;99902.75;5091679;28;20076;-61
2022/10/17 04:43:42;;;;;;;12.82;5.28;;;;;;;6.37;62.32;99900.72;5091611;28;20417;-60
2022/10/17 04:46:11;;;;;;;10.73;5.03;;;;;;;6.43;62.29;99903.56;5090364;28;20078;-62
2022/10/17 04:48:38;;;;;;;5.25;4.13;;;;;;;6.46;62.06;99906.63;5074985;28;20139;-61
2022/10/17 04:51:07;;;;;;;8.70;5.18;;;;;;;6.52;61.87;99907.66;5091536;28;20070;-61
2022/10/17 04:53:42;;;;;;;13.25;6.28;;;;;;;6.51;62.42;99900.75;5091760;28;20093;-61
2022/10/17 04:56:19;;;;;;;9.68;5.38;;;;;;;6.49;62.86;99882.50;5091687;28;20048;-62
2022/10/17 04:58:45;;;;;;;10.50;5.68;;;;;;;6.51;64.17;99883.13;5091715;28;20044;-62
2022/10/17 05:01:14;;;;;;;11.18;5.53;;;;;;;6.56;64.07;99887.81;5092546;28;20035;-62
2022/10/17 05:03:41;;;;;;;10.38;5.82;;;;;;;6.50;65.07;99885.94;5075034;28;20043;-62
2022/10/17 05:06:12;;;;;;;10.35;5.32;;;;;;;6.46;65.43;99882.09;5092369;28;20553;-62
2022/10/17 05:08:38;;;;;;;8.07;5.30;;;;;;;6.45;64.52;99875.22;5091578;28;20075;-61
2022/10/17 05:11:15;;;;;;;9.50;5.20;;;;;;;6.42;64.71;99878.25;5091128;28;20558;-62
2022/10/17 05:13:40;;;;;;;8.02;5.72;;;;;;;6.51;65.00;99882.34;5091103;28;20150;-62
2022/10/17 05:16:06;;;;;;;9.32;5.05;;;;;;;6.52;64.50;99876.84;5092288;28;20042;-62
2022/10/17 05:18:32;;;;;;;7.95;5.22;;;;;;;6.52;64.61;99887.38;5091439;28;20131;-62
2022/10/17 05:20:57;;;;;;;11.15;5.65;;;;;;;6.52;64.46;99882.13;5090712;28;20082;-62
2022/10/17 05:23:23;;;;;;;9.32;5.57;;;;;;;6.51;64.45;99882.34;5091202;28;20056;-65
2022/10/17 05:25:53;;;;;;;11.13;5.22;;;;;;;6.50;64.44;99865.72;5090556;28;20058;-62
2022/10/17 05:28:19;;;;;;;7.32;5.10;;;;;;;6.48;63.65;99869.56;5091001;28;20143;-60
2022/10/17 05:30:46;;;;;;;9.82;5.03;;;;;;;6.56;64.13;99862.28;5089502;28;20178;-59
2022/10/17 05:33:11;;;;;;;7.68;5.63;;;;;;;6.59;63.59;99855.81;5072367;28;20052;-59
2022/10/17 05:35:38;;;;;;;8.10;5.10;;;;;;;6.66;63.40;99850.56;5091693;28;20067;-60
2022/10/17 05:38:04;;;;;;;9.55;5.30;;;;;;;6.69;63.15;99853.59;5090717;28;20055;-60
2022/10/17 05:40:33;;;;;;;8.30;5.00;;;;;;;6.69;63.24;99843.06;5089804;28;20040;-59
2022/10/17 05:42:59;;;;;;;9.75;5.93;;;;;;;6.77;63.08;99842.88;5089254;28;20505;-61
2022/10/17 05:45:24;;;;;;;10.43;5.68;;;;;;;6.89;62.76;99835.16;5088780;28;20055;-64
2022/10/17 05:47:50;;;;;;;8.50;5.43;;;;;;;6.89;62.26;99834.38;5090877;28;20046;-59
2022/10/17 05:50:20;;;;;;;8.82;5.00;;;;;;;6.81;62.23;99844.06;5088426;28;20044;-59
2022/10/17 05:53:00;;;;;;;9.13;5.22;;;;;;;6.93;62.26;99854.81;5089192;28;20071;-60
2022/10/17 05:55:26;;;;;;;8.25;5.18;;;;;;;7.05;61.97;99852.41;5087972;28;20055;-60
2022/10/17 05:57:52;;;;;;;8.10;5.10;;;;;;;7.14;61.48;99860.91;5088105;28;20488;-60
2022/10/17 06:00:20;;;;;;;10.63;5.07;;;;;;;7.18;61.33;99862.94;5087832;28;20165;-61
2022/10/17 06:02:54;;;;;;;13.30;5.00;;;;;;;7.23;60.98;99870.25;5088468;28;20413;-61
2022/10/17 06:05:21;;;;;;;10.02;4.75;;;;;;;7.33;60.89;99864.56;5051736;28;20047;-61
2022/10/17 06:07:48;;;;;;;10.27;5.30;;;;;;;7.35;60.68;99863.31;5070647;28;20036;-60
2022/10/17 06:10:16;;;;;;;8.55;4.90;;;;;;;7.34;60.74;99856.44;5074908;28;20540;-60
2022/10/17 06:12:42;;;;;;;10.25;5.32;;;;;;;7.25;61.67;99857.66;5055115;28;20055;-60
2022/10/17 06:15:08;;;;;;;11.15;6.07;;;;;;;7.24;61.44;99856.06;5089205;28;20113;-60
2022/10/17 06:17:34;;;;;;;8.85;5.32;;;;;;;7.27;61.71;99861.72;5055612;28;20403;-61
2022/10/17 06:20:00;;;;;;;12.18;5.18;;;;;;;7.33;61.12;99848.75;5089042;28;20110;-61
2022/10/17 06:22:26;;;;;;;9.15;4.85;;;;;;;7.36;61.06;99853.63;5089050;28;20040;-60
2022/10/17 06:24:52;;;;;;;11.68;5.10;;;;;;;7.32;61.39;99860.28;5089474;28;20388;-60
2022/10/17 06:27:18;;;;;;;8.88;5.90;;;;;;;7.35;61.17;99851.97;5089108;28;20564;-61
2022/10/17 06:29:46;;;;;;;8.68;5.00;;;;;;;7.37;61.21;99839.41;5089027;28;20187;-61
2022/10/17 06:32:12;;;;;;;9.85;6.07;;;;;;;7.36;61.28;99825.41;5073150;28;20040;-62
2022/10/17 06:34:39;;;;;;;7.22;5.20;;;;;;;7.27;61.36;99806.34;5088877;28;20046;-61
2022/10/17 06:37:05;;;;;;;9.73;5.57;;;;;;;7.41;61.61;99822.13;5072317;28;20043;-60
2022/10/17 06:39:34;;;;;;;13.77;5.97;;;;;;;7.54;60.86;99794.94;5087566;28;20040;-63
2022/10/17 06:42:07;;;;;;;10.68;5.53;;;;;;;7.69;60.84;99796.31;5071898;28;20044;-61
2022/10/17 06:45:06;;;;;;;10.65;5.55;;;;;;;7.72;60.52;99811.72;5086281;28;20102;-61
2022/10/17 06:47:50;;;;;;;9.52;5.45;;;;;;;7.87;59.88;99810.66;5088702;28;20051;-61
2022/10/17 06:50:33;;;;;;;11.30;5.30;;;;;;;7.84;59.75;99798.69;5087808;28;20443;-60
2022/10/17 06:53:11;;;;;;;8.55;5.80;;;;;;;7.87;59.92;99795.63;5072967;28;20087;-59
2022/10/17 06:55:52;;;;;;;8.68;5.28;;;;;;;7.98;59.40;99796.81;5087298;28;20157;-61
2022/10/17 06:58:24;;;;;;;11.82;5.70;;;;;;;8.07;59.38;99810.56;5071403;28;20527;-60
2022/10/17 07:01:13;;;;;;;11.32;5.32;;;;;;;8.09;59.37;99824.34;5087659;28;20146;-62
2022/10/17 07:03:40;;;;;;;14.52;5.95;;;;;;;8.17;58.96;99824.13;5087579;28;20047;-59
2022/10/17 07:06:13;;;;;;;10.13;5.75;;;;;;;8.25;58.87;99813.31;5087976;28;20043;-58
2022/10/17 07:08:49;;;;;;;8.90;5.40;;;;;;;8.26;58.81;99801.72;5038314;28;20044;-60
2022/10/17 07:11:19;;;;;;;10.98;5.47;;;;;;;8.17;59.02;99817.00;5066032;28;20053;-59
2022/10/17 07:13:47;;;;;;;8.43;5.30;;;;;;;8.09;58.51;99777.66;5083669;28;20052;-60
2022/10/17 07:16:14;;;;;;;12.05;5.30;;;;;;;8.12;59.01;99806.28;5053849;28;20079;-60
2022/10/17 07:18:41;;;;;;;13.52;5.45;;;;;;;8.12;59.44;99801.00;5068541;28;20055;-60
2022/10/17 07:21:08;;;;;;;8.45;5.53;;;;;;;8.22;59.02;99805.00;5073319;28;20555;-60
2022/10/17 07:23:35;;;;;;;14.52;6.32;;;;;;;8.21;58.69;99814.78;5070414;28;20097;-59
2022/10/17 07:26:07;;;;;;;8.18;5.30;;;;;;;8.28;59.09;99796.25;5087957;28;20100;-59
2022/10/17 07:28:36;;;;;;;9.10;5.38;;;;;;;8.31;58.56;99782.63;5087607;28;20044;-59
2022/10/17 07:31:15;;;;;;;9.93;5.57;;;;;;;8.33;58.94;99775.28;5086998;28;20032;-60
2022/10/17 07:33:41;;;;;;;10.23;5.43;;;;;;;8.35;58.62;99766.13;5090888;28;20074;-57
2022/10/17 07:36:08;;;;;;;12.25;4.85;;;;;;;8.37;59.53;99765.91;5085521;28;20042;-60
2022/10/17 07:38:33;;;;;;;9.43;5.10;;;;;;;8.39;59.40;99770.00;5079793;28;20127;-60
2022/10/17 07:41:01;;;;;;;10.00;5.68;;;;;;;8.29;59.51;99771.44;5081112;28;20028;-60
2022/10/17 07:43:27;;;;;;;8.32;5.57;;;;;;;8.32;59.38;99774.47;5072383;28;20049;-61
2022/10/17 07:45:54;;;;;;;9.93;5.10;;;;;;;8.28;59.80;99772.47;5070648;28;20135;-61
2022/10/17 07:48:21;;;;;;;10.80;5.55;;;;;;;8.30;60.40;99773.88;5086258;28;20044;-62
2022/10/17 07:50:47;;;;;;;10.00;5.32;;;;;;;8.36;60.53;99788.88;5090333;28;20055;-61
2022/10/17 07:53:13;;;;;;;8.88;5.38;;;;;;;8.35;60.57;99792.56;5086350;28;20048;-60
2022/10/17 07:55:40;;;;;;;8.98;5.30;;;;;;;8.37;60.12;99805.53;5091568;28;20062;-60
2022/10/17 07:58:07;;;;;;;10.90;5.60;;;;;;;8.36;60.25;99801.28;5087790;28;20048;-60
2022/10/17 08:00:32;;;;;;;12.90;5.47;;;;;;;8.32;60.33;99806.16;5073678;28;20071;-57
2022/10/17 08:02:58;;;;;;;14.45;5.45;;;;;;;8.37;60.05;99793.13;5085721;28;20083;-57
2022/10/17 08:05:24;;;;;;;9.95;5.38;;;;;;;8.57;60.18;99800.97;5091694;28;20044;-58
2022/10/17 08:07:49;;;;;;;9.35;5.40;;;;;;;8.71;59.35;99793.75;5091544;28;20396;-59
2022/10/17 08:10:15;;;;;;;10.00;5.70;;;;;;;8.76;59.30;99788.63;5092602;28;20378;-61
2022/10/17 08:12:41;;;;;;;11.50;5.68;;;;;;;8.82;58.95;99781.66;5091733;28;20044;-61
2022/10/17 08:15:08;;;;;;;10.25;5.53;;;;;;;8.85;58.79;99786.50;5093019;28;20428;-60
2022/10/17 08:17:35;;;;;;;13.98;5.38;;;;;;;8.88;59.46;99791.38;5091009;28;20040;-58
2022/10/17 08:20:04;;;;;;;11.02;6.55;;;;;;;8.78;59.27;99777.84;5093122;28;20047;-61
2022/10/17 08:22:30;;;;;;;9.50;5.43;;;;;;;8.85;59.53;99797.91;5087720;28;20131;-60
2022/10/17 08:24:58;;;;;;;14.20;5.63;;;;;;;8.89;59.55;99790.38;5092070;28;20120;-58
2022/10/17 08:27:26;;;;;;;11.50;5.88;;;;;;;8.88;59.14;99791.38;5091968;28;20056;-59
2022/10/17 08:29:52;;;;;;;13.70;6.18;;;;;;;8.82;59.71;99779.84;5090202;28;20508;-58
2022/10/17 08:32:20;;;;;;;13.13;6.20;;;;;;;8.76;60.11;99758.72;5090728;28;20051;-59
2022/10/17 08:34:45;;;;;;;10.63;6.63;;;;;;;8.99;59.73;99756.28;5091705;28;20048;-60
2022/10/17 08:37:12;;;;;;;8.75;5.72;;;;;;;9.14;59.44;99749.84;5091859;28;20212;-58
2022/10/17 08:39:40;;;;;;;10.45;5.68;;;;;;;9.15;59.01;99740.88;5072809;28;20043;-60
2022/10/17 08:42:17;;;;;;;10.80;5.45;;;;;;;9.07;59.90;99740.16;5091986;28;20097;-61
2022/10/17 08:45:25;;;;;;;10.75;5.90;;;;;;;9.12;59.40;99771.25;5092482;28;20078;-60
2022/10/17 08:47:59;;;;;;;11.27;6.07;;;;;;;8.96;59.77;99783.16;5091205;28;20304;-62
2022/10/17 08:50:30;;;;;;;13.25;6.30;;;;;;;8.87;60.31;99773.91;5091511;28;20047;-60
2022/10/17 08:53:35;;;;;;;11.38;5.53;;;;;;;8.82;61.81;99756.06;5090767;28;20143;-62
2022/10/17 08:56:20;;;;;;;10.65;5.80;;;;;;;8.77;62.13;99766.47;5091047;28;20074;-61
2022/10/17 08:58:49;;;;;;;12.50;5.78;;;;;;;8.71;62.86;99759.41;5089988;28;20104;-59
2022/10/17 09:01:23;;;;;;;13.02;6.00;;;;;;;8.77;65.47;99750.59;5090926;28;20036;-59
2022/10/17 09:04:23;;;;;;;10.23;6.18;;;;;;;8.70;66.53;99730.53;5092833;28;20044;-61
2022/10/17 09:06:56;;;;;;;10.77;6.10;;;;;;;8.61;66.75;99764.34;5091135;28;20501;-57
2022/10/17 09:09:25;;;;;;;12.35;6.35;;;;;;;8.48;68.43;99804.88;5092459;28;20098;-64
2022/10/17 09:11:59;;;;;;;11.27;6.57;;;;;;;8.34;70.20;99809.41;5091747;28;20119;-61
2022/10/17 09:14:37;;;;;;;11.55;6.70;;;;;;;8.28;71.82;99798.88;5089527;28;20088;-63
2022/10/17 09:17:21;;;;;;;10.93;6.90;;;;;;;8.27;72.50;99800.72;5089122;28;20078;-62
2022/10/17 09:20:23;;;;;;;11.23;6.97;;;;;;;8.14;71.81;99775.19;5090828;28;20062;-62
2022/10/17 09:22:57;;;;;;;11.98;6.80;;;;;;;8.16;70.36;99759.13;5088087;28;20121;-61
2022/10/17 09:25:22;;;;;;;12.82;6.55;;;;;;;8.21;70.57;99746.13;5091815;28;20040;-62
2022/10/17 09:27:51;;;;;;;9.05;6.57;;;;;;;8.28;70.66;99764.56;5091598;28;20101;-63
2022/10/17 09:30:32;;;;;;;9.02;6.22;;;;;;;8.39;70.77;99758.63;5089337;28;20044;-63
2022/10/17 09:32:58;;;;;;;10.00;6.45;;;;;;;8.38;69.44;99757.81;5090824;28;20139;-75
2022/10/17 09:35:26;;;;;;;13.40;6.90;;;;;;;8.29;70.62;99752.94;5089371;28;20182;-67
2022/10/17 09:37:52;;;;;;;10.90;6.55;;;;;;;8.22;71.11;99749.56;5069278;28;20045;-64
2022/10/17 09:40:32;;;;;;;12.18;6.60;;;;;;;8.27;71.71;99750.53;5070042;28;20123;-66
2022/10/17 09:43:00;;;;;;;9.63;6.35;;;;;;;8.26;70.92;99734.88;5063465;28;20492;-62
2022/10/17 09:45:29;;;;;;;10.93;6.95;;;;;;;8.29;71.01;99737.91;5069134;28;20040;-63
2022/10/17 09:48:00;;;;;;;12.85;6.88;;;;;;;8.22;70.38;99736.34;5079750;28;20043;-64
2022/10/17 09:50:33;;;;;;;10.38;6.43;;;;;;;8.23;71.11;99727.41;5088690;28;20048;-64
2022/10/17 09:53:09;;;;;;;10.43;6.53;;;;;;;8.33;71.77;99739.13;5087506;28;20055;-66
2022/10/17 09:55:44;;;;;;;9.68;6.15;;;;;;;8.40;70.72;99717.97;5088919;28;20051;-66
2022/10/17 09:58:11;;;;;;;11.88;7.18;;;;;;;8.24;71.41;99721.91;5089291;28;20051;-64
2022/10/17 10:00:42;;;;;;;11.77;7.05;;;;;;;8.24;71.95;99719.28;5071063;28;20040;-64
2022/10/17 10:03:09;;;;;;;10.65;6.88;;;;;;;8.39;72.00;99695.22;5087479;28;20100;-63
2022/10/17 10:05:35;;;;;;;11.93;7.28;;;;;;;8.47;71.51;99700.25;5085762;28;20044;-64
2022/10/17 10:08:03;;;;;;;11.48;6.55;;;;;;;8.53;71.24;99701.19;5070131;28;20039;-64
2022/10/17 10:10:30;;;;;;;10.25;6.72;;;;;;;8.52;71.22;99702.22;5089814;28;20044;-64
2022/10/17 10:13:06;;;;;;;12.95;7.43;;;;;;;8.56;71.45;99703.41;5086907;28;20036;-63
2022/10/17 10:15:40;;;;;;;14.73;8.25;;;;;;;8.56;70.85;99708.69;5070079;28;20063;-64
2022/10/17 10:18:24;;;;;;;10.77;7.10;;;;;;;8.64;70.97;99695.19;5066564;28;20067;-64
2022/10/17 10:21:12;;;;;;;13.77;8.13;;;;;;;8.61;70.34;99690.34;5067230;28;20093;-64
2022/10/17 10:23:46;;;;;;;12.35;7.10;;;;;;;8.49;71.29;99694.72;5089063;28;20040;-64
2022/10/17 10:26:21;;;;;;;12.98;7.55;;;;;;;8.51;71.45;99687.41;5089031;28;20036;-64
2022/10/17 10:29:18;;;;;;;12.27;7.00;;;;;;;8.38;71.67;99689.13;5091595;28;20558;-64
2022/10/17 10:31:45;;;;;;;10.98;7.22;;;;;;;8.38;71.76;99689.13;5089608;28;20456;-67
2022/10/17 10:34:19;;;;;;;10.90;7.05;;;;;;;8.44;71.66;99673.44;5089348;28;20112;-66
2022/10/17 10:36:59;;;;;;;11.57;7.50;;;;;;;8.55;71.34;99684.09;5072622;28;20062;-66
2022/10/17 10:39:31;;;;;;;11.75;7.45;;;;;;;8.54;71.50;99665.84;5089563;28;20509;-65
2022/10/17 10:41:58;;;;;;;12.50;7.07;;;;;;;8.64;71.26;99668.78;5089694;28;20131;-66
2022/10/17 10:44:26;;;;;;;13.52;7.47;;;;;;;8.71;71.19;99656.31;5090018;28;20493;-66
2022/10/17 10:47:25;;;;;;;14.27;7.43;;;;;;;8.69;70.81;99663.66;5089887;28;20059;-66
2022/10/17 10:50:15;;;;;;;12.80;7.05;;;;;;;8.70;70.94;99657.34;5086510;28;20052;-66
2022/10/17 10:52:55;;;;;;;13.10;7.78;;;;;;;8.66;71.21;99660.66;5069220;28;20052;-66
2022/10/17 10:55:45;;;;;;;10.95;7.43;;;;;;;8.58;71.74;99659.06;5069499;28;20145;-66
2022/10/17 10:58:23;;;;;;;15.18;7.55;;;;;;;8.55;71.68;99662.97;5076309;28;20040;-66
2022/10/17 11:00:49;;;;;;;16.40;8.32;;;;;;;8.58;72.23;99661.72;5090100;28;20040;-65
2022/10/17 11:03:28;;;;;;;12.15;7.80;;;;;;;8.50;72.61;99670.75;5089760;28;20043;-66
2022/10/17 11:06:02;;;;;;;12.63;7.22;;;;;;;8.54;72.55;99661.34;5090861;28;20043;-66
2022/10/17 11:08:45;;;;;;;13.50;8.32;;;;;;;8.44;72.77;99687.44;5092261;28;20048;-66
2022/10/17 11:11:22;;;;;;;12.38;8.02;;;;;;;8.48;73.00;99672.78;5076860;28;20036;-66
2022/10/17 11:14:00;;;;;;;13.27;8.18;;;;;;;8.56;72.13;99674.34;5073692;28;20406;-66
2022/10/17 11:16:35;;;;;;;13.90;7.65;;;;;;;8.58;72.54;99672.28;5074570;28;20497;-67
2022/10/17 11:19:19;;;;;;;12.65;8.27;;;;;;;8.53;73.39;99677.41;5081139;28;20130;-67
2022/10/17 11:22:08;;;;;;;11.07;7.10;;;;;;;8.55;73.42;99676.16;5094974;28;20435;-66
2022/10/17 11:24:42;;;;;;;13.90;8.02;;;;;;;8.60;73.27;99659.69;5094761;28;20071;-66
2022/10/17 11:27:08;;;;;;;13.82;8.82;;;;;;;8.58;73.83;99649.31;5094803;28;20040;-64
2022/10/17 11:29:37;;;;;;;14.98;7.53;;;;;;;8.43;74.20;99638.28;5086015;28;20035;-66
2022/10/17 11:32:13;;;;;;;14.77;7.43;;;;;;;8.47;74.12;99643.94;5069842;28;20043;-64
2022/10/17 11:34:51;;;;;;;12.40;7.65;;;;;;;8.54;74.05;99632.28;5083201;28;20075;-64
2022/10/17 11:37:22;;;;;;;12.07;7.90;;;;;;;8.63;74.07;99627.53;5093127;28;20425;-66
2022/10/17 11:39:59;;;;;;;16.55;7.85;;;;;;;8.65;74.10;99614.91;5092963;28;20036;-65
2022/10/17 11:42:51;;;;;;;12.52;8.57;;;;;;;8.52;74.37;99610.56;5093190;28;20054;-65
2022/10/17 11:45:21;;;;;;;12.60;7.90;;;;;;;8.48;75.37;99617.31;5093111;28;20040;-65
2022/10/17 11:47:50;;;;;;;16.15;8.45;;;;;;;8.49;75.06;99613.63;5094417;28;20044;-65
2022/10/17 11:50:33;;;;;;;15.57;8.40;;;;;;;8.48;75.69;99606.75;5071414;28;20032;-66
2022/10/17 11:53:02;;;;;;;13.10;8.43;;;;;;;8.52;75.81;99597.34;5071433;28;20787;-66
2022/10/17 11:55:29;;;;;;;14.15;8.40;;;;;;;8.41;76.14;99592.78;5086577;28;20051;-66
2022/10/17 11:58:24;;;;;;;13.02;8.27;;;;;;;8.49;76.20;99599.63;5091786;28;20482;-66